Terminal Aerodrome Forecast
Issued by NWS Atlanta, GA

Home | Current Version | Previous Version | Text Only | Print | Product List | Glossary On
Versions: 1 2 3 4 5 6 7 8 9 10 11 12 13 14 15 16 17 18 19 20 21 22 23 24 25 26 27 28 29 30 31 32 33
000
FTAK31 PAJN 080540
TAFAHN
TAF
PAHN 080540Z 0806/0906 12007KT 5SM -SN BR FEW007 SCT017 OVC025
      TEMPO 0806/0810 00000KT 1 1/2SM -SN BR BKN005 OVC020
     FM081000 07006KT P6SM OVC030
     FM081200 31012KT P6SM FEW010 SCT015 BKN060
     FM090000 30009KT 2SM -RA BR SCT015 BKN040 OVC060
     FM090300 30007KT 2SM -RA BR BKN015 OVC030
      AMD LTD TO CLD VIS AND WIND=

USA.gov is the U.S. government's official web portal to all federal, state and local government web resources and services.